Time;durP1;ratioP1;P1;durP2;ratioP2;P2;SDS_P1;SDS_P2;PMS_P1;PMS_P2;Temp;Humidity;BMP_temperature;BMP_pressure;BME280_temperature;BME280_humidity;BME280_pressure;Samples;Min_cycle;Max_cycle;Signal;HPM_P1;HPM_P2
2022/06/03 00:00:42;;;;;;;;;;;22.80;45.60;;;;;;477430;250;1226;-78
2022/06/03 00:02:43;;;;;;;;;;;22.80;45.70;;;;;;477252;250;1622;-78
2022/06/03 00:04:45;;;;;;;;;;;22.80;45.70;;;;;;477377;250;1132;-78
2022/06/03 00:06:46;;;;;;;;;;;22.80;45.70;;;;;;477438;250;1176;-78
2022/06/03 00:08:48;;;;;;;;;;;22.70;45.80;;;;;;477403;247;1326;-78
2022/06/03 00:10:49;;;;;;;;;;;22.70;45.80;;;;;;477462;248;1105;-77
2022/06/03 00:12:50;;;;;;;;;;;22.90;45.60;;;;;;477370;250;2200;-77
2022/06/03 00:14:52;;;;;;;;;;;22.90;45.50;;;;;;477387;250;1130;-77
2022/06/03 00:16:53;;;;;;;;;;;23.00;45.40;;;;;;477318;250;1224;-77
2022/06/03 00:18:54;;;;;;;;;;;23.00;45.30;;;;;;477410;250;1080;-77
2022/06/03 00:20:56;;;;;;;;;;;23.00;45.20;;;;;;477250;250;1162;-78
2022/06/03 00:22:57;;;;;;;;;;;23.10;45.00;;;;;;477293;250;1080;-77
2022/06/03 00:24:58;;;;;;;;;;;23.10;44.90;;;;;;477387;250;987;-77
2022/06/03 00:27:00;;;;;;;;;;;23.10;44.90;;;;;;477356;242;1240;-77
2022/06/03 00:29:01;;;;;;;;;;;23.10;45.00;;;;;;477378;250;1253;-77
2022/06/03 00:31:02;;;;;;;;;;;23.00;45.10;;;;;;477340;250;1181;-77
2022/06/03 00:33:04;;;;;;;;;;;22.90;45.40;;;;;;477364;250;2195;-77
2022/06/03 00:35:05;;;;;;;;;;;22.80;45.50;;;;;;477385;250;968;-77
2022/06/03 00:37:06;;;;;;;;;;;22.80;45.40;;;;;;477341;246;1206;-77
2022/06/03 00:39:08;;;;;;;;;;;22.90;45.50;;;;;;477354;250;991;-77
2022/06/03 00:41:09;;;;;;;;;;;22.90;45.40;;;;;;477313;250;1155;-77
2022/06/03 00:43:11;;;;;;;;;;;22.90;45.30;;;;;;477327;250;953;-77
2022/06/03 00:45:12;;;;;;;;;;;23.00;45.20;;;;;;477277;250;1239;-78
2022/06/03 00:47:13;;;;;;;;;;;23.00;45.20;;;;;;477433;250;1223;-78
2022/06/03 00:49:15;;;;;;;;;;;22.90;45.30;;;;;;477376;250;924;-78
2022/06/03 00:51:16;;;;;;;;;;;22.90;45.40;;;;;;477378;250;1231;-78
2022/06/03 00:53:17;;;;;;;;;;;22.80;45.50;;;;;;477415;250;2162;-77
2022/06/03 00:55:19;;;;;;;;;;;22.70;45.50;;;;;;477478;250;1262;-77
2022/06/03 00:57:20;;;;;;;;;;;22.70;45.60;;;;;;477316;250;1166;-77
2022/06/03 00:59:21;;;;;;;;;;;22.70;45.70;;;;;;477286;250;971;-78
2022/06/03 01:01:23;;;;;;;;;;;22.70;45.50;;;;;;477382;250;1183;-78
2022/06/03 01:03:24;;;;;;;;;;;22.80;45.50;;;;;;477387;250;1292;-78
2022/06/03 01:05:25;;;;;;;;;;;22.80;45.60;;;;;;477389;250;1106;-78
2022/06/03 01:07:27;;;;;;;;;;;22.70;45.60;;;;;;477310;250;1256;-78
2022/06/03 01:09:28;;;;;;;;;;;22.70;45.60;;;;;;477319;250;1100;-78
2022/06/03 01:11:29;;;;;;;;;;;22.80;45.60;;;;;;477357;250;1239;-78
2022/06/03 01:13:31;;;;;;;;;;;22.80;45.70;;;;;;477412;250;2116;-78
2022/06/03 01:15:32;;;;;;;;;;;22.70;45.50;;;;;;477296;250;1216;-78
2022/06/03 01:17:33;;;;;;;;;;;22.70;45.60;;;;;;477328;250;1192;-78
2022/06/03 01:19:35;;;;;;;;;;;22.70;45.50;;;;;;477353;250;1171;-78
2022/06/03 01:21:36;;;;;;;;;;;22.70;45.50;;;;;;477272;250;1175;-78
2022/06/03 01:23:38;;;;;;;;;;;22.80;45.40;;;;;;477321;250;1253;-78
2022/06/03 01:25:39;;;;;;;;;;;22.80;45.30;;;;;;477316;250;967;-78
2022/06/03 01:27:40;;;;;;;;;;;22.80;45.20;;;;;;477305;250;991;-77
2022/06/03 01:29:42;;;;;;;;;;;23.00;45.10;;;;;;477259;250;1110;-77
2022/06/03 01:31:43;;;;;;;;;;;22.90;45.10;;;;;;477206;250;1213;-77
2022/06/03 01:33:45;;;;;;;;;;;22.90;45.20;;;;;;477219;250;2117;-77
2022/06/03 01:35:46;;;;;;;;;;;23.00;45.10;;;;;;477212;250;1011;-77
2022/06/03 01:37:47;;;;;;;;;;;23.00;45.10;;;;;;477258;250;1445;-77
2022/06/03 01:39:49;;;;;;;;;;;23.10;45.00;;;;;;477214;250;1008;-77
2022/06/03 01:41:50;;;;;;;;;;;23.20;44.70;;;;;;477245;250;1055;-77
2022/06/03 01:43:51;;;;;;;;;;;23.10;44.60;;;;;;477244;250;1093;-77
2022/06/03 01:45:54;;;;;;;;;;;23.20;44.70;;;;;;477374;250;1305;-77
2022/06/03 01:47:56;;;;;;;;;;;23.20;44.50;;;;;;477280;250;1428;-78
2022/06/03 01:49:55;;;;;;;;;;;23.10;44.70;;;;;;477181;250;1474;-78
2022/06/03 01:51:58;;;;;;;;;;;23.20;44.60;;;;;;477182;250;1143;-78
2022/06/03 01:53:58;;;;;;;;;;;23.20;44.50;;;;;;477193;250;2120;-77
2022/06/03 01:55:59;;;;;;;;;;;23.20;44.50;;;;;;477272;250;976;-77
2022/06/03 01:58:01;;;;;;;;;;;23.20;44.50;;;;;;477289;250;1152;-77
2022/06/03 02:00:03;;;;;;;;;;;23.00;44.60;;;;;;477383;250;970;-77
2022/06/03 02:02:04;;;;;;;;;;;23.00;44.90;;;;;;477375;250;1338;-77
2022/06/03 02:04:06;;;;;;;;;;;22.90;44.90;;;;;;477286;250;1092;-77
2022/06/03 02:06:07;;;;;;;;;;;22.90;45.10;;;;;;477358;250;1456;-77
2022/06/03 02:08:08;;;;;;;;;;;22.80;45.20;;;;;;477238;250;1138;-77
2022/06/03 02:10:10;;;;;;;;;;;22.90;45.00;;;;;;477381;250;1063;-77
2022/06/03 02:12:12;;;;;;;;;;;23.00;45.00;;;;;;477422;250;1078;-77
2022/06/03 02:14:13;;;;;;;;;;;23.00;45.00;;;;;;477308;247;2188;-77
2022/06/03 02:16:14;;;;;;;;;;;23.00;44.90;;;;;;477209;241;1574;-78
2022/06/03 02:18:16;;;;;;;;;;;23.00;44.90;;;;;;477349;250;1106;-78
2022/06/03 02:20:17;;;;;;;;;;;23.00;44.70;;;;;;477357;250;1210;-78
2022/06/03 02:22:18;;;;;;;;;;;23.10;44.70;;;;;;477415;250;1257;-78
2022/06/03 02:24:20;;;;;;;;;;;23.10;44.60;;;;;;477274;250;1185;-78
2022/06/03 02:26:21;;;;;;;;;;;23.00;44.70;;;;;;477280;250;1225;-78
2022/06/03 02:28:22;;;;;;;;;;;23.00;44.80;;;;;;477264;250;1072;-77
2022/06/03 02:30:27;;;;;;;;;;;23.00;44.90;;;;;;477297;250;979;-78
2022/06/03 02:32:28;;;;;;;;;;;23.00;44.90;;;;;;477298;246;1155;-77
2022/06/03 02:34:29;;;;;;;;;;;22.90;45.00;;;;;;477279;250;2183;-78
2022/06/03 02:36:31;;;;;;;;;;;22.90;44.90;;;;;;477277;250;1202;-77
2022/06/03 02:38:32;;;;;;;;;;;23.00;44.80;;;;;;477232;250;946;-77
2022/06/03 02:40:35;;;;;;;;;;;22.90;44.80;;;;;;477264;250;1050;-77
2022/06/03 02:42:36;;;;;;;;;;;22.90;44.80;;;;;;477335;250;1393;-77
2022/06/03 02:44:38;;;;;;;;;;;22.90;45.00;;;;;;477259;250;1054;-77
2022/06/03 02:46:39;;;;;;;;;;;22.80;45.00;;;;;;477177;250;1309;-77
2022/06/03 02:48:40;;;;;;;;;;;22.80;45.10;;;;;;477254;250;1004;-77
2022/06/03 02:50:42;;;;;;;;;;;22.90;45.00;;;;;;477315;250;968;-77
2022/06/03 02:52:43;;;;;;;;;;;22.90;44.90;;;;;;477322;246;2129;-78
2022/06/03 02:54:44;;;;;;;;;;;22.90;44.80;;;;;;477276;250;1546;-77
2022/06/03 02:56:46;;;;;;;;;;;23.00;44.70;;;;;;477180;247;1231;-77
2022/06/03 02:58:47;;;;;;;;;;;23.10;44.60;;;;;;477357;250;1461;-77
2022/06/03 03:00:48;;;;;;;;;;;23.10;44.50;;;;;;477246;250;1004;-77
2022/06/03 03:02:50;;;;;;;;;;;23.10;44.50;;;;;;477335;246;1285;-77
2022/06/03 03:04:51;;;;;;;;;;;23.10;44.40;;;;;;477263;250;1175;-77
2022/06/03 03:06:53;;;;;;;;;;;23.20;44.40;;;;;;477140;246;1246;-78
2022/06/03 03:08:54;;;;;;;;;;;23.20;44.30;;;;;;477197;250;1073;-78
2022/06/03 03:10:55;;;;;;;;;;;23.10;44.60;;;;;;477240;250;1092;-78
2022/06/03 03:12:57;;;;;;;;;;;23.10;44.60;;;;;;477177;250;2211;-78
2022/06/03 03:14:58;;;;;;;;;;;23.10;44.60;;;;;;477295;250;1188;-78
2022/06/03 03:17:00;;;;;;;;;;;23.00;44.70;;;;;;477225;250;1223;-78
2022/06/03 03:19:01;;;;;;;;;;;22.90;44.90;;;;;;477403;250;1282;-78
2022/06/03 03:21:02;;;;;;;;;;;23.00;44.80;;;;;;477272;250;1198;-78
2022/06/03 03:23:05;;;;;;;;;;;23.10;44.60;;;;;;477248;250;1162;-78
2022/06/03 03:25:05;;;;;;;;;;;23.00;44.50;;;;;;477203;250;1402;-78
2022/06/03 03:27:06;;;;;;;;;;;23.00;44.60;;;;;;477240;250;1155;-78
2022/06/03 03:29:08;;;;;;;;;;;23.00;44.60;;;;;;477260;250;1095;-78
2022/06/03 03:31:09;;;;;;;;;;;23.10;44.50;;;;;;477210;250;1123;-78
2022/06/03 03:33:10;;;;;;;;;;;23.10;44.30;;;;;;477287;246;2167;-78
2022/06/03 03:35:12;;;;;;;;;;;23.10;44.20;;;;;;477238;250;1172;-78
2022/06/03 03:37:13;;;;;;;;;;;23.10;44.30;;;;;;477197;250;1093;-78
2022/06/03 03:39:14;;;;;;;;;;;23.10;44.30;;;;;;477364;250;1221;-78
2022/06/03 03:41:18;;;;;;;;;;;23.10;44.40;;;;;;477301;243;1204;-77
2022/06/03 03:43:18;;;;;;;;;;;23.10;44.40;;;;;;477219;250;1464;-77
2022/06/03 03:45:19;;;;;;;;;;;23.00;44.50;;;;;;477302;250;953;-77
2022/06/03 03:47:21;;;;;;;;;;;23.10;44.50;;;;;;477177;250;1227;-77
2022/06/03 03:49:22;;;;;;;;;;;23.10;44.50;;;;;;477236;250;951;-77
2022/06/03 03:51:26;;;;;;;;;;;23.10;44.50;;;;;;477260;250;988;-77
2022/06/03 03:53:29;;;;;;;;;;;23.10;44.40;;;;;;477215;250;2187;-77
2022/06/03 03:55:26;;;;;;;;;;;23.10;44.40;;;;;;476983;250;1442;-77
2022/06/03 03:57:27;;;;;;;;;;;23.10;44.40;;;;;;477289;250;994;-77
2022/06/03 03:59:29;;;;;;;;;;;23.10;44.40;;;;;;477251;250;963;-77
2022/06/03 04:01:30;;;;;;;;;;;23.20;44.30;;;;;;477031;250;986;-77
2022/06/03 04:03:32;;;;;;;;;;;23.20;44.20;;;;;;476939;250;1328;-77
2022/06/03 04:05:33;;;;;;;;;;;23.30;44.10;;;;;;477336;250;1013;-77
2022/06/03 04:07:34;;;;;;;;;;;23.30;43.90;;;;;;476967;250;1249;-77
2022/06/03 04:09:35;;;;;;;;;;;23.30;43.90;;;;;;476929;250;971;-77
2022/06/03 04:11:37;;;;;;;;;;;23.30;43.80;;;;;;476876;250;1076;-79
2022/06/03 04:13:38;;;;;;;;;;;23.30;43.80;;;;;;476967;250;2191;-78
2022/06/03 04:15:39;;;;;;;;;;;23.30;43.80;;;;;;476880;250;1093;-77
2022/06/03 04:17:41;;;;;;;;;;;23.30;43.80;;;;;;476893;250;1126;-78
2022/06/03 04:19:42;;;;;;;;;;;23.30;44.00;;;;;;476909;250;998;-78
2022/06/03 04:21:44;;;;;;;;;;;23.30;44.00;;;;;;476921;250;1009;-78
2022/06/03 04:23:45;;;;;;;;;;;23.30;43.90;;;;;;476977;250;957;-78
2022/06/03 04:25:46;;;;;;;;;;;23.20;44.00;;;;;;476920;250;1140;-78
2022/06/03 04:27:48;;;;;;;;;;;23.20;44.20;;;;;;476918;250;1116;-77
2022/06/03 04:29:49;;;;;;;;;;;23.10;44.20;;;;;;476975;250;1060;-77
2022/06/03 04:31:50;;;;;;;;;;;23.10;44.30;;;;;;476962;250;1118;-77
2022/06/03 04:33:52;;;;;;;;;;;23.10;44.20;;;;;;476889;250;2340;-77
2022/06/03 04:35:54;;;;;;;;;;;23.20;44.00;;;;;;476862;250;978;-77
2022/06/03 04:37:55;;;;;;;;;;;23.20;44.10;;;;;;476848;250;2288;-77
2022/06/03 04:39:56;;;;;;;;;;;23.20;44.00;;;;;;476889;250;960;-77
2022/06/03 04:41:57;;;;;;;;;;;23.20;44.00;;;;;;476884;250;996;-77
2022/06/03 04:43:59;;;;;;;;;;;23.20;44.10;;;;;;476874;250;969;-78
2022/06/03 04:46:00;;;;;;;;;;;23.20;44.10;;;;;;476850;250;1155;-78
2022/06/03 04:48:01;;;;;;;;;;;23.20;43.90;;;;;;476742;250;1215;-77
2022/06/03 04:50:03;;;;;;;;;;;23.30;44.00;;;;;;477240;250;1074;-77
2022/06/03 04:52:04;;;;;;;;;;;23.30;43.90;;;;;;476825;250;1194;-78
2022/06/03 04:54:05;;;;;;;;;;;23.20;44.00;;;;;;476829;250;2108;-77
2022/06/03 04:56:07;;;;;;;;;;;23.30;44.00;;;;;;476828;250;977;-77
2022/06/03 04:58:08;;;;;;;;;;;23.20;44.00;;;;;;477242;250;1311;-78
2022/06/03 05:00:09;;;;;;;;;;;23.20;44.10;;;;;;476783;250;952;-77
2022/06/03 05:02:11;;;;;;;;;;;23.10;44.30;;;;;;476734;250;1223;-77
2022/06/03 05:04:12;;;;;;;;;;;23.10;44.40;;;;;;476740;250;1140;-77
2022/06/03 05:06:13;;;;;;;;;;;23.10;44.50;;;;;;476685;250;1241;-77
2022/06/03 05:08:15;;;;;;;;;;;23.10;44.50;;;;;;476750;250;1019;-78
2022/06/03 05:10:16;;;;;;;;;;;23.10;44.50;;;;;;476856;250;996;-78
2022/06/03 05:12:18;;;;;;;;;;;23.20;44.40;;;;;;476834;250;1154;-78
2022/06/03 05:14:19;;;;;;;;;;;23.30;44.30;;;;;;476757;250;2180;-77
2022/06/03 05:16:20;;;;;;;;;;;23.20;44.40;;;;;;477158;250;1404;-77
2022/06/03 05:18:21;;;;;;;;;;;23.20;44.40;;;;;;476731;250;1135;-77
2022/06/03 05:20:23;;;;;;;;;;;23.20;44.40;;;;;;476784;250;1047;-77
2022/06/03 05:22:24;;;;;;;;;;;23.20;44.40;;;;;;476759;250;981;-77
2022/06/03 05:24:26;;;;;;;;;;;23.20;44.20;;;;;;476696;250;981;-78
2022/06/03 05:26:27;;;;;;;;;;;23.20;44.40;;;;;;476623;250;989;-78
2022/06/03 05:28:29;;;;;;;;;;;23.30;44.30;;;;;;476764;250;966;-79
2022/06/03 05:30:30;;;;;;;;;;;23.30;44.40;;;;;;476782;250;966;-77
2022/06/03 05:32:31;;;;;;;;;;;23.30;44.30;;;;;;476805;250;1037;-77
2022/06/03 05:34:32;;;;;;;;;;;23.40;44.30;;;;;;476788;250;2133;-77
2022/06/03 05:36:34;;;;;;;;;;;23.40;44.30;;;;;;477115;250;1116;-77
2022/06/03 05:38:35;;;;;;;;;;;23.30;44.40;;;;;;476685;250;1445;-77
2022/06/03 05:40:37;;;;;;;;;;;23.20;44.50;;;;;;476688;250;1708;-77
2022/06/03 05:42:38;;;;;;;;;;;23.20;44.70;;;;;;477176;250;1956;-77
2022/06/03 05:44:40;;;;;;;;;;;23.10;44.80;;;;;;476855;250;979;-78
2022/06/03 05:46:41;;;;;;;;;;;23.10;44.90;;;;;;476755;250;1013;-77
2022/06/03 05:48:42;;;;;;;;;;;23.10;44.90;;;;;;476754;250;1015;-77
2022/06/03 05:50:44;;;;;;;;;;;23.20;44.80;;;;;;477201;250;1186;-77
2022/06/03 05:52:45;;;;;;;;;;;23.30;44.80;;;;;;477228;250;1000;-77
2022/06/03 05:54:46;;;;;;;;;;;23.20;44.80;;;;;;476597;250;2188;-77
2022/06/03 05:56:48;;;;;;;;;;;23.20;44.70;;;;;;476606;250;1054;-77
2022/06/03 05:58:49;;;;;;;;;;;23.30;44.70;;;;;;476720;250;985;-78
2022/06/03 06:00:50;;;;;;;;;;;23.20;44.90;;;;;;476828;250;1031;-77
2022/06/03 06:02:52;;;;;;;;;;;23.20;44.80;;;;;;476717;250;1199;-77
2022/06/03 06:04:54;;;;;;;;;;;23.20;45.00;;;;;;476989;246;1246;-77
2022/06/03 06:06:55;;;;;;;;;;;23.30;45.00;;;;;;477044;250;1169;-77
2022/06/03 06:08:56;;;;;;;;;;;23.30;45.10;;;;;;476817;250;1143;-78
2022/06/03 06:10:58;;;;;;;;;;;23.30;45.00;;;;;;476996;250;1081;-78
2022/06/03 06:12:59;;;;;;;;;;;23.30;45.10;;;;;;476602;250;1135;-78
2022/06/03 06:15:02;;;;;;;;;;;23.20;45.20;;;;;;476738;250;2172;-77
2022/06/03 06:17:02;;;;;;;;;;;23.20;45.40;;;;;;476669;250;1507;-77
2022/06/03 06:19:03;;;;;;;;;;;23.10;45.50;;;;;;476601;250;1097;-77
2022/06/03 06:21:04;;;;;;;;;;;23.20;45.60;;;;;;476489;250;1169;-78
2022/06/03 06:23:06;;;;;;;;;;;23.50;45.20;;;;;;476618;250;1005;-78
2022/06/03 06:25:07;;;;;;;;;;;23.40;45.20;;;;;;476551;250;1005;-77
2022/06/03 06:27:09;;;;;;;;;;;23.50;45.10;;;;;;476521;250;1096;-77
2022/06/03 06:29:10;;;;;;;;;;;23.40;45.20;;;;;;476610;250;1058;-77
2022/06/03 06:31:11;;;;;;;;;;;23.30;45.40;;;;;;476790;250;1121;-77
2022/06/03 06:33:13;;;;;;;;;;;23.30;45.50;;;;;;476627;250;1108;-77
2022/06/03 06:35:14;;;;;;;;;;;23.20;45.50;;;;;;476665;250;2187;-77
2022/06/03 06:37:15;;;;;;;;;;;23.10;45.60;;;;;;476668;250;1058;-77
2022/06/03 06:39:17;;;;;;;;;;;23.00;46.00;;;;;;476628;250;990;-77
2022/06/03 06:41:18;;;;;;;;;;;23.20;45.90;;;;;;476455;250;1122;-77
2022/06/03 06:43:19;;;;;;;;;;;23.20;45.70;;;;;;476595;250;1104;-77
2022/06/03 06:45:21;;;;;;;;;;;23.20;45.70;;;;;;476564;250;1062;-77
2022/06/03 06:47:22;;;;;;;;;;;23.20;45.90;;;;;;476359;250;1079;-77
2022/06/03 06:49:23;;;;;;;;;;;23.30;45.80;;;;;;476336;250;996;-77
2022/06/03 06:51:25;;;;;;;;;;;23.30;45.90;;;;;;476426;250;1230;-77
2022/06/03 06:53:26;;;;;;;;;;;23.30;45.80;;;;;;476311;250;1161;-77
2022/06/03 06:55:27;;;;;;;;;;;23.30;45.90;;;;;;476371;250;2117;-77
2022/06/03 06:57:29;;;;;;;;;;;23.30;45.90;;;;;;476531;245;1158;-77
2022/06/03 06:59:30;;;;;;;;;;;23.30;46.00;;;;;;476300;250;1050;-77
2022/06/03 07:01:31;;;;;;;;;;;23.20;46.00;;;;;;476149;250;1217;-77
2022/06/03 07:03:33;;;;;;;;;;;23.20;46.10;;;;;;476242;246;1156;-78
2022/06/03 07:05:34;;;;;;;;;;;23.20;46.20;;;;;;476283;250;1297;-71
2022/06/03 07:07:35;;;;;;;;;;;23.10;46.30;;;;;;476527;250;1258;-77
2022/06/03 07:09:37;;;;;;;;;;;23.20;46.50;;;;;;476660;250;1225;-77
2022/06/03 07:11:38;;;;;;;;;;;23.20;46.20;;;;;;476396;250;1164;-77
2022/06/03 07:13:39;;;;;;;;;;;23.20;46.50;;;;;;476365;250;1160;-77
2022/06/03 07:15:41;;;;;;;;;;;23.30;46.40;;;;;;476512;250;2188;-77
2022/06/03 07:20:05;;;;;;;;;;;23.30;46.20;;;;;;476246;250;1403;-77
2022/06/03 07:22:03;;;;;;;;;;;23.20;46.30;;;;;;475848;250;1423;-77
2022/06/03 07:24:04;;;;;;;;;;;23.30;46.20;;;;;;476322;250;1022;-78
2022/06/03 07:26:06;;;;;;;;;;;23.10;46.50;;;;;;476300;250;1016;-78
2022/06/03 07:28:07;;;;;;;;;;;23.10;46.80;;;;;;476254;246;1237;-78
2022/06/03 07:30:08;;;;;;;;;;;23.00;46.80;;;;;;476118;250;1065;-78
2022/06/03 07:32:10;;;;;;;;;;;23.20;46.70;;;;;;476157;250;1073;-77
2022/06/03 07:34:11;;;;;;;;;;;23.10;46.80;;;;;;476091;250;1055;-77
2022/06/03 07:36:13;;;;;;;;;;;23.10;46.90;;;;;;476176;250;2156;-78
2022/06/03 07:38:15;;;;;;;;;;;23.30;46.80;;;;;;476074;250;1508;-78
2022/06/03 07:40:15;;;;;;;;;;;23.20;46.70;;;;;;476374;250;1410;-78
2022/06/03 07:42:16;;;;;;;;;;;23.30;46.70;;;;;;476777;250;1158;-77
2022/06/03 07:44:18;;;;;;;;;;;23.30;46.70;;;;;;476858;250;1112;-77
2022/06/03 07:46:19;;;;;;;;;;;23.20;46.80;;;;;;476153;250;1245;-78
2022/06/03 07:48:21;;;;;;;;;;;23.10;46.90;;;;;;476079;250;1093;-78
2022/06/03 07:50:23;;;;;;;;;;;23.20;47.00;;;;;;476151;250;1238;-78
2022/06/03 07:52:23;;;;;;;;;;;23.30;46.80;;;;;;476595;250;1421;-77
2022/06/03 07:54:25;;;;;;;;;;;23.30;46.80;;;;;;476774;250;1306;-77
2022/06/03 07:56:26;;;;;;;;;;;23.20;46.90;;;;;;476537;250;2132;-77
2022/06/03 07:58:28;;;;;;;;;;;23.20;46.90;;;;;;476300;250;1253;-77
2022/06/03 08:00:29;;;;;;;;;;;23.30;47.00;;;;;;476438;250;1077;-78
2022/06/03 08:02:30;;;;;;;;;;;23.20;47.10;;;;;;476426;250;1115;-78
2022/06/03 08:04:32;;;;;;;;;;;23.30;47.10;;;;;;476505;250;1029;-77
2022/06/03 08:10:56;;;;;;;;;;;23.20;47.10;;;;;;476264;250;1178;-78
2022/06/03 08:10:57;;;;;;;;;;;23.30;47.10;;;;;;476168;250;1209;-78
2022/06/03 08:12:58;;;;;;;;;;;23.30;47.20;;;;;;476104;250;1143;-78
2022/06/03 08:14:59;;;;;;;;;;;23.40;47.30;;;;;;476162;250;2192;-78
2022/06/03 08:17:01;;;;;;;;;;;23.50;47.10;;;;;;476166;250;1112;-77
2022/06/03 08:19:02;;;;;;;;;;;23.60;46.90;;;;;;476382;250;1046;-78
2022/06/03 08:21:03;;;;;;;;;;;23.50;47.00;;;;;;476456;250;1225;-77
2022/06/03 08:23:05;;;;;;;;;;;23.50;47.20;;;;;;476503;250;991;-78
2022/06/03 08:25:06;;;;;;;;;;;23.50;47.10;;;;;;476306;250;1075;-78
2022/06/03 08:27:07;;;;;;;;;;;23.50;47.20;;;;;;476227;250;1014;-78
2022/06/03 08:29:09;;;;;;;;;;;23.60;47.20;;;;;;476352;250;1066;-78
2022/06/03 08:31:10;;;;;;;;;;;23.70;47.00;;;;;;476281;250;1022;-78
2022/06/03 08:33:11;;;;;;;;;;;23.60;47.00;;;;;;476327;250;1267;-78
2022/06/03 08:35:13;;;;;;;;;;;23.60;47.00;;;;;;476281;250;2195;-77
2022/06/03 08:37:14;;;;;;;;;;;23.60;47.10;;;;;;476363;250;1125;-78
2022/06/03 08:39:16;;;;;;;;;;;23.50;47.20;;;;;;476332;250;1053;-77
2022/06/03 08:41:17;;;;;;;;;;;23.50;47.20;;;;;;476860;250;1035;-78
2022/06/03 08:43:18;;;;;;;;;;;23.50;47.20;;;;;;476476;250;1055;-78
2022/06/03 08:45:20;;;;;;;;;;;23.50;47.40;;;;;;476447;250;1064;-77
2022/06/03 08:47:21;;;;;;;;;;;23.50;47.40;;;;;;476590;243;1203;-78
2022/06/03 08:49:23;;;;;;;;;;;23.50;47.20;;;;;;476434;250;1047;-77
2022/06/03 08:51:24;;;;;;;;;;;23.50;47.30;;;;;;476351;250;1518;-78
2022/06/03 08:53:25;;;;;;;;;;;23.40;47.50;;;;;;476364;250;1213;-77
2022/06/03 08:55:26;;;;;;;;;;;23.50;47.50;;;;;;476365;250;2113;-77
2022/06/03 08:57:28;;;;;;;;;;;23.40;47.50;;;;;;476521;250;1226;-77
2022/06/03 08:59:29;;;;;;;;;;;23.50;47.50;;;;;;476288;250;988;-78
2022/06/03 09:01:30;;;;;;;;;;;23.50;47.30;;;;;;476308;250;1272;-77
2022/06/03 09:03:32;;;;;;;;;;;23.50;47.50;;;;;;476311;250;1093;-78
2022/06/03 09:05:33;;;;;;;;;;;23.70;47.00;;;;;;476260;250;1077;-77
2022/06/03 09:07:34;;;;;;;;;;;23.70;47.10;;;;;;476264;250;1343;-78
2022/06/03 09:09:36;;;;;;;;;;;23.70;47.10;;;;;;476321;250;1003;-78
2022/06/03 09:11:37;;;;;;;;;;;23.60;47.20;;;;;;476783;250;1038;-77
2022/06/03 09:13:39;;;;;;;;;;;23.70;47.30;;;;;;476387;250;1326;-78
2022/06/03 09:15:40;;;;;;;;;;;23.60;47.30;;;;;;476897;250;2132;-77
2022/06/03 09:17:41;;;;;;;;;;;23.70;47.30;;;;;;476522;250;1049;-78
2022/06/03 09:19:43;;;;;;;;;;;23.60;47.50;;;;;;476895;250;2328;-77
2022/06/03 09:21:44;;;;;;;;;;;23.50;47.50;;;;;;476235;250;1676;-78
2022/06/03 09:23:45;;;;;;;;;;;23.70;47.50;;;;;;476818;250;1193;-78
2022/06/03 09:25:48;;;;;;;;;;;23.70;47.30;;;;;;476256;250;1070;-78
2022/06/03 09:27:49;;;;;;;;;;;23.80;47.30;;;;;;476394;250;998;-78
2022/06/03 09:29:52;;;;;;;;;;;23.80;47.30;;;;;;476934;250;1013;-78
2022/06/03 09:31:52;;;;;;;;;;;23.90;47.20;;;;;;476306;250;1453;-78
2022/06/03 09:33:53;;;;;;;;;;;23.80;47.10;;;;;;476376;250;1056;-78
2022/06/03 09:35:55;;;;;;;;;;;23.90;47.10;;;;;;476204;250;2188;-78
2022/06/03 09:37:58;;;;;;;;;;;23.90;47.00;;;;;;476408;250;1476;-78
2022/06/03 09:39:58;;;;;;;;;;;23.90;47.10;;;;;;476141;250;1464;-78
2022/06/03 09:41:59;;;;;;;;;;;23.70;47.30;;;;;;476295;250;1002;-78
2022/06/03 09:44:03;;;;;;;;;;;23.70;47.50;;;;;;476279;250;1024;-77
2022/06/03 09:46:02;;;;;;;;;;;23.60;47.60;;;;;;476674;250;1340;-77
2022/06/03 09:48:04;;;;;;;;;;;23.70;47.60;;;;;;476262;250;1233;-77
2022/06/03 09:50:05;;;;;;;;;;;23.70;47.40;;;;;;476310;250;1259;-77
2022/06/03 09:52:08;;;;;;;;;;;23.70;47.40;;;;;;476358;250;1083;-77
2022/06/03 09:54:07;;;;;;;;;;;23.70;47.40;;;;;;476162;250;1429;-78
2022/06/03 09:56:09;;;;;;;;;;;23.70;47.50;;;;;;476288;250;2195;-77
2022/06/03 09:58:10;;;;;;;;;;;23.70;47.60;;;;;;476324;250;1270;-78
2022/06/03 10:00:12;;;;;;;;;;;23.80;47.40;;;;;;476501;250;1056;-78
2022/06/03 10:02:13;;;;;;;;;;;23.80;47.30;;;;;;476441;250;1009;-78
2022/06/03 10:04:14;;;;;;;;;;;23.80;47.50;;;;;;476492;250;1203;-78
2022/06/03 10:13:16;;;;;;;;;;;23.90;47.20;;;;;;476513;247;1229;-77
2022/06/03 10:17:36;;;;;;;;;;;23.90;47.40;;;;;;476492;250;998;-78
2022/06/03 10:19:38;;;;;;;;;;;24.00;47.30;;;;;;476498;250;1112;-78
2022/06/03 10:21:39;;;;;;;;;;;24.00;47.30;;;;;;476529;250;1085;-78
2022/06/03 10:23:40;;;;;;;;;;;24.10;47.10;;;;;;476787;250;1207;-78
2022/06/03 10:25:42;;;;;;;;;;;24.10;47.10;;;;;;476235;250;1195;-78
2022/06/03 10:27:43;;;;;;;;;;;24.10;46.90;;;;;;476646;250;1109;-77
2022/06/03 10:29:44;;;;;;;;;;;24.10;46.90;;;;;;476280;250;1036;-77
2022/06/03 10:31:46;;;;;;;;;;;24.20;46.80;;;;;;476507;243;1372;-78
2022/06/03 10:33:47;;;;;;;;;;;24.10;46.80;;;;;;476934;246;1663;-77
2022/06/03 10:35:49;;;;;;;;;;;24.20;47.00;;;;;;476565;250;2136;-78
2022/06/03 10:37:50;;;;;;;;;;;24.20;47.00;;;;;;476880;250;1674;-78
2022/06/03 10:39:51;;;;;;;;;;;24.10;47.10;;;;;;476498;245;1222;-77
2022/06/03 10:41:52;;;;;;;;;;;24.10;47.20;;;;;;476533;250;986;-78
2022/06/03 10:43:54;;;;;;;;;;;24.10;47.20;;;;;;476523;250;1028;-77
2022/06/03 10:45:55;;;;;;;;;;;24.10;47.20;;;;;;476523;250;1008;-78
2022/06/03 10:47:57;;;;;;;;;;;24.10;47.10;;;;;;476552;250;1021;-78
2022/06/03 10:49:58;;;;;;;;;;;24.10;47.20;;;;;;476244;250;983;-76
2022/06/03 11:01:17;;;;;;;;;;;24.00;47.60;;;;;;476091;250;1056;-77
2022/06/03 11:03:18;;;;;;;;;;;24.10;47.30;;;;;;476081;250;998;-77
2022/06/03 11:05:19;;;;;;;;;;;24.10;47.40;;;;;;476202;250;1048;-77
2022/06/03 11:07:21;;;;;;;;;;;24.00;47.50;;;;;;476544;250;1031;-76
2022/06/03 11:09:23;;;;;;;;;;;24.10;47.50;;;;;;476356;250;1168;-76
2022/06/03 11:11:24;;;;;;;;;;;24.10;47.40;;;;;;476238;250;1463;-76
2022/06/03 11:13:25;;;;;;;;;;;24.10;47.60;;;;;;476103;250;1048;-77
2022/06/03 11:15:31;;;;;;;;;;;24.10;47.60;;;;;;475924;250;1089;-76
2022/06/03 11:17:28;;;;;;;;;;;24.10;47.50;;;;;;475966;250;2187;-76
2022/06/03 11:19:29;;;;;;;;;;;24.10;47.60;;;;;;475937;250;1057;-76
2022/06/03 11:21:31;;;;;;;;;;;24.20;47.30;;;;;;475999;250;1113;-76
2022/06/03 11:23:32;;;;;;;;;;;24.30;47.30;;;;;;475997;250;1274;-77
2022/06/03 11:25:34;;;;;;;;;;;24.20;47.30;;;;;;476135;250;1096;-76
2022/06/03 11:27:35;;;;;;;;;;;24.20;47.20;;;;;;475956;250;1380;-76
2022/06/03 11:29:37;;;;;;;;;;;24.30;47.30;;;;;;476503;250;1223;-76
2022/06/03 11:31:37;;;;;;;;;;;24.10;47.30;;;;;;476124;250;1319;-76
2022/06/03 11:33:39;;;;;;;;;;;24.20;47.40;;;;;;476124;250;1144;-76
2022/06/03 11:35:40;;;;;;;;;;;24.40;47.10;;;;;;476136;250;1131;-76
2022/06/03 11:37:41;;;;;;;;;;;24.30;47.30;;;;;;476249;250;2219;-76
2022/06/03 11:39:43;;;;;;;;;;;24.30;47.20;;;;;;476397;250;1573;-76
2022/06/03 11:41:44;;;;;;;;;;;24.40;47.10;;;;;;476652;250;1079;-76
2022/06/03 11:43:45;;;;;;;;;;;24.30;47.30;;;;;;476112;250;1004;-76
2022/06/03 11:45:47;;;;;;;;;;;24.20;47.40;;;;;;476563;250;1236;-76
2022/06/03 11:47:49;;;;;;;;;;;24.20;47.40;;;;;;476186;250;1111;-76
2022/06/03 11:49:50;;;;;;;;;;;24.30;47.30;;;;;;476224;250;1096;-76
2022/06/03 11:51:52;;;;;;;;;;;24.20;47.40;;;;;;476311;250;1117;-76
2022/06/03 11:53:53;;;;;;;;;;;24.20;47.30;;;;;;476337;250;1025;-76
2022/06/03 11:55:54;;;;;;;;;;;24.20;47.30;;;;;;476279;250;2187;-76
2022/06/03 11:57:56;;;;;;;;;;;24.30;47.30;;;;;;476892;250;1224;-76
2022/06/03 11:59:57;;;;;;;;;;;24.30;47.10;;;;;;476431;250;1208;-76
2022/06/03 12:01:59;;;;;;;;;;;24.30;46.90;;;;;;476652;250;1195;-76
2022/06/03 12:04:00;;;;;;;;;;;24.40;46.90;;;;;;476351;250;1001;-76
2022/06/03 12:06:02;;;;;;;;;;;24.30;47.00;;;;;;476370;250;1075;-76
2022/06/03 12:08:03;;;;;;;;;;;24.40;46.70;;;;;;476324;250;1173;-76
2022/06/03 12:10:05;;;;;;;;;;;24.40;46.60;;;;;;476724;250;1424;-76
2022/06/03 12:14:25;;;;;;;;;;;24.30;47.00;;;;;;476427;250;1035;-76
2022/06/03 12:16:27;;;;;;;;;;;24.10;47.20;;;;;;476301;250;2128;-77
2022/06/03 12:18:28;;;;;;;;;;;24.20;47.20;;;;;;476250;250;1074;-76
2022/06/03 12:20:30;;;;;;;;;;;24.20;47.10;;;;;;476387;250;1052;-76
2022/06/03 12:22:31;;;;;;;;;;;24.10;47.30;;;;;;476287;250;1245;-76